createdAt,value
2022-08-29T00:02:56.778Z,4.30
2022-08-29T00:08:01.260Z,4.40
2022-08-29T00:13:04.538Z,5.20
2022-08-29T00:18:08.239Z,5.20
2022-08-29T00:23:11.529Z,5.40
2022-08-29T00:28:14.035Z,6.00
2022-08-29T00:33:16.351Z,5.25
2022-08-29T00:38:19.303Z,5.60
2022-08-29T00:43:25.200Z,5.05
2022-08-29T00:48:27.224Z,5.40
2022-08-29T00:53:40.959Z,6.10
2022-08-29T00:58:47.865Z,6.72
2022-08-29T01:03:51.140Z,6.20
2022-08-29T01:08:57.318Z,6.40
2022-08-29T01:14:01.213Z,6.55
2022-08-29T01:19:10.920Z,6.85
2022-08-29T01:24:16.040Z,7.35
2022-08-29T01:29:18.627Z,7.43
2022-08-29T01:34:20.979Z,7.53
2022-08-29T01:39:26.584Z,7.83
2022-08-29T01:44:28.559Z,8.15
2022-08-29T01:49:35.897Z,8.37
2022-08-29T01:54:41.979Z,13.13
2022-08-29T02:04:47.389Z,10.77
2022-08-29T02:09:49.400Z,10.50
2022-08-29T02:14:51.627Z,11.07
2022-08-29T02:19:53.712Z,11.18
2022-08-29T02:24:55.933Z,11.80
2022-08-29T02:29:57.943Z,12.38
2022-08-29T02:35:00.544Z,12.18
2022-08-29T02:40:03.092Z,12.75
2022-08-29T02:45:05.809Z,13.50
2022-08-29T02:50:10.195Z,13.63
2022-08-29T02:55:15.675Z,16.73
2022-08-29T03:00:25.490Z,19.40
2022-08-29T03:05:30.439Z,19.73
2022-08-29T03:10:32.977Z,23.60
2022-08-29T03:15:35.260Z,24.53
2022-08-29T03:20:38.204Z,27.42
2022-08-29T03:25:40.208Z,27.88
2022-08-29T03:30:42.849Z,29.13
2022-08-29T03:35:45.040Z,31.73
2022-08-29T03:40:47.316Z,30.02
2022-08-29T03:45:52.220Z,30.50
2022-08-29T03:50:56.412Z,33.70
2022-08-29T03:55:58.662Z,36.92
2022-08-29T04:01:01.291Z,31.83
2022-08-29T04:06:03.711Z,32.10
2022-08-29T04:11:10.993Z,29.00
2022-08-29T04:16:15.079Z,26.58
2022-08-29T04:21:18.654Z,26.50
2022-08-29T04:26:37.452Z,22.70
2022-08-29T04:31:40.926Z,23.48
2022-08-29T04:36:45.323Z,23.15
2022-08-29T04:41:47.348Z,22.85
2022-08-29T04:46:49.586Z,21.20
2022-08-29T04:51:52.971Z,19.23
2022-08-29T04:56:55.577Z,19.83
2022-08-29T05:01:59.878Z,18.30
2022-08-29T05:07:02.361Z,20.73
2022-08-29T05:12:09.657Z,19.50
2022-08-29T05:17:12.233Z,19.58
2022-08-29T05:22:15.104Z,22.10
2022-08-29T05:27:20.325Z,16.10
2022-08-29T05:32:22.405Z,9.20
2022-08-29T05:37:24.826Z,8.77
2022-08-29T05:42:27.690Z,7.50
2022-08-29T05:47:31.517Z,7.38
2022-08-29T05:52:33.941Z,6.25
2022-08-29T05:57:36.275Z,6.57
2022-08-29T06:02:38.552Z,6.93
2022-08-29T06:07:40.939Z,6.30
2022-08-29T06:12:43.084Z,7.00
2022-08-29T06:17:45.020Z,7.20
2022-08-29T06:22:47.124Z,7.10
2022-08-29T06:27:49.141Z,8.18
2022-08-29T06:32:51.161Z,7.05
2022-08-29T06:37:53.563Z,8.55
2022-08-29T06:42:55.605Z,7.67
2022-08-29T06:47:57.537Z,6.40
2022-08-29T06:53:14.543Z,6.65
2022-08-29T06:58:21.710Z,6.63
2022-08-29T07:03:23.958Z,6.90
2022-08-29T07:08:26.145Z,7.53
2022-08-29T07:13:28.314Z,8.80
2022-08-29T07:18:30.254Z,9.13
2022-08-29T07:23:32.289Z,8.77
2022-08-29T07:28:35.000Z,8.52
2022-08-29T07:33:40.577Z,8.20
2022-08-29T07:38:42.705Z,8.93
2022-08-29T07:43:45.003Z,8.70
2022-08-29T07:48:47.405Z,21.97
2022-08-29T07:53:50.527Z,9.65
2022-08-29T07:58:53.743Z,11.20
2022-08-29T08:03:56.251Z,10.60
2022-08-29T08:09:00.052Z,10.38
2022-08-29T08:14:03.312Z,9.82
2022-08-29T08:19:07.521Z,10.68
2022-08-29T08:24:10.042Z,9.90
2022-08-29T08:29:13.191Z,9.37
2022-08-29T08:34:16.875Z,9.35
2022-08-29T08:39:19.045Z,8.05
2022-08-29T08:44:28.357Z,7.68
2022-08-29T08:49:42.577Z,6.85
2022-08-29T08:54:51.993Z,6.43
2022-08-29T08:59:57.741Z,8.60
2022-08-29T09:05:22.278Z,10.15
2022-08-29T09:10:37.045Z,10.75
2022-08-29T09:15:48.449Z,9.60
2022-08-29T09:20:53.026Z,9.38
2022-08-29T09:25:56.345Z,8.45
2022-08-29T09:31:23.109Z,7.03
2022-08-29T09:36:46.026Z,6.55
2022-08-29T09:41:55.552Z,5.57
2022-08-29T09:47:09.055Z,4.47
2022-08-29T09:52:24.858Z,4.97
2022-08-29T09:57:28.457Z,4.22
2022-08-29T10:02:33.166Z,4.85
2022-08-29T10:07:46.738Z,4.35
2022-08-29T10:13:08.485Z,4.22
2022-08-29T10:18:24.516Z,5.00
2022-08-29T10:23:37.412Z,4.05
2022-08-29T10:28:55.791Z,4.03
2022-08-29T10:34:28.220Z,4.20
2022-08-29T10:40:10.890Z,4.13
2022-08-29T10:45:30.840Z,3.70
2022-08-29T10:50:44.748Z,4.07
2022-08-29T10:56:12.095Z,3.55
2022-08-29T11:01:23.067Z,4.00
2022-08-29T11:07:17.893Z,3.28
2022-08-29T11:12:47.187Z,3.38
2022-08-29T11:17:57.132Z,3.60
2022-08-29T11:23:12.868Z,3.40
2022-08-29T11:28:41.122Z,3.40
2022-08-29T11:33:56.885Z,3.08
2022-08-29T11:39:04.836Z,2.80
2022-08-29T11:44:33.311Z,3.20
2022-08-29T11:49:39.015Z,3.15
2022-08-29T11:54:45.304Z,3.30
2022-08-29T11:59:48.564Z,3.08
2022-08-29T12:05:10.007Z,3.20
2022-08-29T12:10:32.685Z,3.00
2022-08-29T12:15:35.541Z,3.80
2022-08-29T12:25:55.163Z,3.80
2022-08-29T12:31:35.824Z,3.30
2022-08-29T12:36:57.197Z,3.30
2022-08-29T12:42:37.996Z,4.20
2022-08-29T12:47:45.979Z,4.97
2022-08-29T12:53:16.108Z,3.80
2022-08-29T12:58:36.576Z,3.78
2022-08-29T13:03:38.696Z,3.67
2022-08-29T13:08:41.283Z,3.63
2022-08-29T13:13:43.369Z,4.35
2022-08-29T13:19:07.404Z,3.10
2022-08-29T13:24:19.685Z,3.60
2022-08-29T13:35:15.287Z,3.55
2022-08-29T13:40:28.871Z,3.50
2022-08-29T13:45:31.019Z,3.15
2022-08-29T13:50:33.083Z,3.10
2022-08-29T13:55:35.393Z,2.97
2022-08-29T14:00:39.516Z,3.22
2022-08-29T14:05:41.992Z,2.90
2022-08-29T14:10:44.236Z,3.22
2022-08-29T14:15:46.850Z,2.83
2022-08-29T14:20:49.166Z,3.30
2022-08-29T14:25:51.267Z,3.40
2022-08-29T14:30:53.621Z,3.10
2022-08-29T14:35:56.148Z,2.70
2022-08-29T14:40:59.363Z,3.30
2022-08-29T14:46:01.414Z,3.38
2022-08-29T14:51:03.944Z,2.97
2022-08-29T14:56:06.366Z,3.35
2022-08-29T15:01:09.764Z,2.95
2022-08-29T15:06:13.578Z,2.67
2022-08-29T15:11:15.629Z,3.00
2022-08-29T15:16:17.953Z,2.80
2022-08-29T15:21:26.138Z,2.70
2022-08-29T15:31:31.282Z,3.00
2022-08-29T15:36:34.502Z,3.20
2022-08-29T15:41:37.080Z,2.75
2022-08-29T15:46:39.111Z,2.85
2022-08-29T15:51:53.337Z,2.90
2022-08-29T15:56:55.329Z,3.13
2022-08-29T16:01:57.470Z,3.00
2022-08-29T16:06:59.557Z,2.87
2022-08-29T16:12:01.559Z,2.75
2022-08-29T16:17:05.039Z,3.25
2022-08-29T16:22:08.023Z,2.95
2022-08-29T16:27:10.556Z,3.08
2022-08-29T16:32:12.532Z,3.23
2022-08-29T16:37:14.874Z,3.25
2022-08-29T16:42:17.468Z,3.23
2022-08-29T16:47:19.405Z,3.60
2022-08-29T16:52:21.429Z,3.38
2022-08-29T16:57:23.475Z,3.30
2022-08-29T17:02:25.716Z,3.10
2022-08-29T17:07:33.405Z,3.33
2022-08-29T17:12:35.505Z,3.17
2022-08-29T17:17:37.512Z,3.35
2022-08-29T17:22:39.511Z,3.40
2022-08-29T17:27:55.472Z,3.45
2022-08-29T17:33:05.593Z,4.00
2022-08-29T17:38:08.538Z,3.40
2022-08-29T17:43:12.949Z,3.22
2022-08-29T17:48:15.514Z,3.60
2022-08-29T17:53:19.347Z,3.80
2022-08-29T17:58:22.130Z,3.60
2022-08-29T18:03:24.998Z,3.97
2022-08-29T18:08:26.946Z,10.18
2022-08-29T18:13:29.097Z,5.28
2022-08-29T18:18:31.727Z,3.72
2022-08-29T18:23:34.090Z,4.43
2022-08-29T18:28:36.448Z,4.77
2022-08-29T18:33:57.356Z,6.15
2022-08-29T18:39:02.191Z,6.00
2022-08-29T18:44:05.226Z,6.75
2022-08-29T18:49:07.960Z,6.10
2022-08-29T18:54:18.754Z,5.60
2022-08-29T18:59:23.580Z,6.10
2022-08-29T19:04:25.641Z,15.25
2022-08-29T19:09:27.614Z,4.80
2022-08-29T19:14:30.195Z,5.25
2022-08-29T19:19:52.727Z,5.63
2022-08-29T19:24:58.537Z,5.97
2022-08-29T19:30:15.373Z,6.32
2022-08-29T19:35:28.713Z,6.25
2022-08-29T19:40:35.663Z,6.68
2022-08-29T19:45:42.910Z,6.63
2022-08-29T19:50:47.764Z,6.85
2022-08-29T19:55:50.001Z,6.20
2022-08-29T20:00:52.562Z,6.40
2022-08-29T20:05:56.460Z,6.45
2022-08-29T20:10:58.660Z,6.78
2022-08-29T20:16:00.939Z,6.15
2022-08-29T20:21:03.034Z,6.43
2022-08-29T20:26:05.379Z,6.03
2022-08-29T20:31:07.758Z,5.75
2022-08-29T20:36:28.153Z,6.18
2022-08-29T20:41:31.346Z,5.85
2022-08-29T20:46:38.071Z,6.00
2022-08-29T20:51:44.525Z,6.65
2022-08-29T20:56:46.816Z,6.20
2022-08-29T21:01:52.742Z,6.05
2022-08-29T21:07:07.173Z,6.32
2022-08-29T21:12:11.529Z,5.93
2022-08-29T21:17:14.897Z,6.28
2022-08-29T21:22:18.954Z,5.68
2022-08-29T21:27:24.041Z,6.18
2022-08-29T21:32:26.108Z,5.68
2022-08-29T21:37:28.418Z,5.85
2022-08-29T21:42:31.090Z,5.57
2022-08-29T21:47:39.278Z,5.47
2022-08-29T21:52:42.841Z,5.90
2022-08-29T21:57:51.931Z,5.17
2022-08-29T22:02:54.360Z,5.43
2022-08-29T22:08:01.365Z,5.27
2022-08-29T22:13:06.489Z,5.65
2022-08-29T22:18:12.778Z,6.07
2022-08-29T22:23:17.509Z,5.70
2022-08-29T22:28:22.932Z,4.93
2022-08-29T22:33:24.856Z,5.63
2022-08-29T22:38:26.830Z,5.45
2022-08-29T22:43:28.957Z,5.90
2022-08-29T22:48:30.908Z,5.60
2022-08-29T22:53:33.010Z,5.88
2022-08-29T22:58:36.599Z,5.82
2022-08-29T23:03:38.775Z,5.72
2022-08-29T23:08:40.779Z,5.85
2022-08-29T23:13:43.816Z,5.53
2022-08-29T23:18:46.555Z,5.85
2022-08-29T23:23:49.576Z,5.40
2022-08-29T23:28:51.943Z,5.07
2022-08-29T23:33:54.579Z,5.85
2022-08-29T23:38:56.596Z,5.63
2022-08-29T23:43:59.197Z,5.82
2022-08-29T23:49:01.231Z,6.18
2022-08-29T23:54:03.450Z,6.60
2022-08-29T23:59:05.527Z,5.88
